Time;durP1;ratioP1;P1;durP2;ratioP2;P2;SDS_P1;SDS_P2;PMS_P1;PMS_P2;Temp;Humidity;BMP_temperature;BMP_pressure;BME280_temperature;BME280_humidity;BME280_pressure;Samples;Min_cycle;Max_cycle;Signal;HPM_P1;HPM_P2
2021/12/08 00:01:41;;;;;;;;;;;-1.50;99.90;;;;;;8346794;28;19966;-63
2021/12/08 00:05:43;;;;;;;;;;;-1.50;99.90;;;;;;8348607;28;19913;-63
2021/12/08 00:10:00;;;;;;;;;;;-1.30;99.90;;;;;;8313573;28;20000;-65
2021/12/08 00:14:00;;;;;;;;;;;-1.40;99.90;;;;;;8331825;28;19909;-63
2021/12/08 00:18:02;;;;;;;;;;;-1.60;99.90;;;;;;8352419;28;19928;-65
2021/12/08 00:22:03;;;;;;;;;;;-1.30;99.90;;;;;;8364000;28;19952;-64
2021/12/08 00:26:04;;;;;;;;;;;-1.10;99.90;;;;;;8364242;28;19931;-64
2021/12/08 00:30:05;;;;;;;;;;;-1.10;99.90;;;;;;8342576;28;19920;-64
2021/12/08 00:34:06;;;;;;;;;;;-1.00;99.90;;;;;;8332112;28;19948;-63
2021/12/08 00:38:06;;;;;;;;;;;-1.00;99.90;;;;;;8362407;28;19909;-64
2021/12/08 00:42:07;;;;;;;;;;;-1.00;99.90;;;;;;8352353;28;20405;-63
2021/12/08 00:46:08;;;;;;;;;;;-0.90;99.90;;;;;;8317533;28;19909;-64
2021/12/08 00:50:10;;;;;;;;;;;-0.90;99.90;;;;;;8363157;28;20359;-64
2021/12/08 00:54:11;;;;;;;;;;;-1.10;99.90;;;;;;8362910;28;19913;-64
2021/12/08 00:58:11;;;;;;;;;;;-0.90;99.90;;;;;;8345633;28;19913;-64
2021/12/08 01:02:12;;;;;;;;;;;-1.00;99.90;;;;;;8362898;28;19916;-65
2021/12/08 01:06:13;;;;;;;;;;;-1.00;99.90;;;;;;8353139;28;19920;-64
2021/12/08 01:10:16;;;;;;;;;;;-0.90;99.90;;;;;;8344232;28;19912;-65
2021/12/08 01:14:17;;;;;;;;;;;-0.90;99.90;;;;;;8345031;28;19912;-64
2021/12/08 01:18:18;;;;;;;;;;;-0.90;99.90;;;;;;8362054;28;19932;-64
2021/12/08 01:22:18;;;;;;;;;;;-0.90;99.90;;;;;;8361871;28;19913;-64
2021/12/08 01:26:19;;;;;;;;;;;-0.90;99.90;;;;;;8361944;28;19908;-64
2021/12/08 01:30:20;;;;;;;;;;;-0.70;99.90;;;;;;8333545;28;19959;-63
2021/12/08 01:34:20;;;;;;;;;;;-0.90;99.90;;;;;;8329563;28;20047;-64
2021/12/08 01:38:21;;;;;;;;;;;-1.00;99.90;;;;;;8329137;28;20431;-65
2021/12/08 01:42:36;;;;;;;;;;;-0.90;99.90;;;;;;8354652;28;19923;-64
2021/12/08 01:46:36;;;;;;;;;;;-0.90;99.90;;;;;;8362239;28;19947;-64
2021/12/08 01:50:37;;;;;;;;;;;-1.00;99.90;;;;;;8361513;28;19917;-65
2021/12/08 01:54:38;;;;;;;;;;;-0.90;99.90;;;;;;8354269;28;20397;-63
2021/12/08 01:58:38;;;;;;;;;;;-0.80;99.90;;;;;;8361843;28;19913;-63
2021/12/08 02:02:39;;;;;;;;;;;-0.80;99.90;;;;;;8361241;28;19927;-65
2021/12/08 02:06:41;;;;;;;;;;;-0.60;99.90;;;;;;8359679;28;19913;-65
2021/12/08 02:10:42;;;;;;;;;;;-0.60;99.90;;;;;;8360932;28;19909;-65
2021/12/08 02:14:42;;;;;;;;;;;-0.70;99.90;;;;;;8361169;28;20367;-64
2021/12/08 02:18:44;;;;;;;;;;;-0.40;99.90;;;;;;8329940;28;20289;-64
2021/12/08 02:22:44;;;;;;;;;;;-0.40;99.90;;;;;;8337288;28;19931;-64
2021/12/08 02:26:47;;;;;;;;;;;-0.50;99.90;;;;;;8360141;28;19915;-63
2021/12/08 02:30:53;;;;;;;;;;;-0.50;99.90;;;;;;8327463;28;19913;-65
2021/12/08 02:47:54;;;;;;;;;;;-0.40;99.90;;;;;;8327011;28;20402;-63
2021/12/08 02:51:55;;;;;;;;;;;-0.10;99.90;;;;;;8371602;22;19925;-65
2021/12/08 02:55:55;;;;;;;;;;;0.00;99.90;;;;;;8359381;28;19909;-65
2021/12/08 02:59:56;;;;;;;;;;;-0.20;99.90;;;;;;8341347;28;19913;-66
2021/12/08 03:03:56;;;;;;;;;;;-0.30;99.90;;;;;;8341611;28;19915;-66
2021/12/08 03:07:57;;;;;;;;;;;-0.20;99.90;;;;;;8329358;28;19913;-65
2021/12/08 03:11:59;;;;;;;;;;;-0.10;99.90;;;;;;8325204;28;19920;-65
2021/12/08 03:16:00;;;;;;;;;;;-0.30;99.90;;;;;;8329107;28;19959;-65
2021/12/08 03:20:02;;;;;;;;;;;-0.10;99.90;;;;;;8358384;28;20285;-65
2021/12/08 03:24:27;;;;;;;;;;;-0.10;99.90;;;;;;8357609;28;19909;-65
2021/12/08 03:28:32;;;;;;;;;;;-0.10;99.90;;;;;;8333613;28;19988;-66
2021/12/08 03:32:37;;;;;;;;;;;0.00;99.90;;;;;;8325599;28;19916;-68
2021/12/08 03:36:39;;;;;;;;;;;0.10;99.90;;;;;;8325915;28;20312;-65
2021/12/08 03:40:39;;;;;;;;;;;0.20;99.90;;;;;;8331792;28;20006;-65
2021/12/08 03:44:40;;;;;;;;;;;0.30;99.90;;;;;;8358912;28;19915;-66
2021/12/08 03:48:47;;;;;;;;;;;0.10;99.90;;;;;;8358773;28;19909;-65
2021/12/08 03:52:48;;;;;;;;;;;0.10;99.90;;;;;;8356705;28;19944;-65
2021/12/08 03:56:48;;;;;;;;;;;0.10;99.90;;;;;;8358963;28;19949;-66
2021/12/08 04:00:49;;;;;;;;;;;0.10;99.90;;;;;;8358483;28;19916;-65
2021/12/08 04:04:51;;;;;;;;;;;0.10;99.90;;;;;;8353468;28;19936;-65
2021/12/08 04:08:56;;;;;;;;;;;0.10;99.90;;;;;;8325898;28;20593;-65
2021/12/08 04:12:56;;;;;;;;;;;0.20;99.90;;;;;;8325579;28;19909;-65
2021/12/08 04:16:57;;;;;;;;;;;0.10;99.90;;;;;;8334229;28;19924;-65
2021/12/08 04:20:58;;;;;;;;;;;0.00;99.90;;;;;;8357986;28;19923;-65
2021/12/08 04:24:59;;;;;;;;;;;0.20;99.90;;;;;;8357717;28;19908;-65
2021/12/08 04:29:00;;;;;;;;;;;0.50;99.90;;;;;;8349134;28;20274;-65
2021/12/08 04:33:00;;;;;;;;;;;0.50;99.90;;;;;;8307386;28;19909;-65
2021/12/08 04:37:03;;;;;;;;;;;0.60;99.90;;;;;;8307262;28;19919;-65
2021/12/08 04:41:07;;;;;;;;;;;0.30;99.90;;;;;;8336771;28;19916;-65
2021/12/08 04:45:15;;;;;;;;;;;0.40;99.90;;;;;;8362090;28;19912;-66
2021/12/08 05:02:52;;;;;;;;;;;0.50;99.90;;;;;;8283649;28;19919;-65
2021/12/08 05:07:17;;;;;;;;;;;0.40;99.90;;;;;;8330746;28;19920;-65
2021/12/08 05:11:20;;;;;;;;;;;0.40;99.90;;;;;;8328273;28;19967;-66
2021/12/08 05:15:23;;;;;;;;;;;0.60;99.90;;;;;;8329561;28;19913;-65
2021/12/08 05:19:26;;;;;;;;;;;0.70;99.90;;;;;;8362098;28;20017;-65
2021/12/08 05:23:30;;;;;;;;;;;0.60;99.90;;;;;;8356769;28;19920;-65
2021/12/08 05:27:40;;;;;;;;;;;0.60;99.90;;;;;;8335972;28;19912;-66
2021/12/08 05:31:41;;;;;;;;;;;0.60;99.90;;;;;;8345635;28;19913;-65
2021/12/08 05:35:42;;;;;;;;;;;0.60;99.90;;;;;;8344251;28;19967;-68
2021/12/08 05:39:43;;;;;;;;;;;0.50;99.90;;;;;;8335203;28;19952;-68
2021/12/08 05:43:45;;;;;;;;;;;0.60;99.90;;;;;;8339462;28;19966;-68
2021/12/08 05:47:46;;;;;;;;;;;0.70;99.90;;;;;;8329230;28;20007;-65
2021/12/08 05:51:48;;;;;;;;;;;0.60;99.90;;;;;;8350896;28;20281;-64
2021/12/08 05:55:49;;;;;;;;;;;0.60;99.90;;;;;;8350450;28;19996;-65
2021/12/08 05:59:51;;;;;;;;;;;0.70;99.90;;;;;;8350951;28;20589;-66
2021/12/08 06:03:52;;;;;;;;;;;0.70;99.90;;;;;;8340674;28;19920;-65
2021/12/08 06:07:53;;;;;;;;;;;0.80;99.90;;;;;;8361341;28;19909;-65
2021/12/08 06:11:54;;;;;;;;;;;0.80;99.90;;;;;;8347466;28;20368;-66
2021/12/08 06:15:55;;;;;;;;;;;0.80;99.90;;;;;;8341389;28;19913;-64
2021/12/08 06:19:56;;;;;;;;;;;1.00;99.90;;;;;;8340766;28;19921;-65
2021/12/08 06:23:57;;;;;;;;;;;0.90;99.90;;;;;;8349065;28;19917;-65
2021/12/08 06:27:58;;;;;;;;;;;0.90;99.90;;;;;;8338802;28;19917;-66
2021/12/08 06:31:59;;;;;;;;;;;1.00;99.90;;;;;;8355604;28;19958;-66
2021/12/08 06:36:03;;;;;;;;;;;0.90;99.90;;;;;;8337617;28;19919;-65
2021/12/08 06:40:06;;;;;;;;;;;0.80;99.90;;;;;;8335408;28;19917;-65
2021/12/08 06:44:09;;;;;;;;;;;0.90;99.90;;;;;;8329996;28;19913;-65
2021/12/08 06:48:12;;;;;;;;;;;1.00;99.90;;;;;;8327089;28;20331;-66
2021/12/08 06:52:15;;;;;;;;;;;1.10;99.90;;;;;;8358207;28;19917;-67
2021/12/08 06:56:22;;;;;;;;;;;1.30;99.90;;;;;;8334368;28;20628;-66
2021/12/08 07:00:24;;;;;;;;;;;1.30;99.90;;;;;;8356525;28;20474;-65
2021/12/08 07:04:35;;;;;;;;;;;1.10;99.90;;;;;;8349512;28;19921;-66
2021/12/08 07:08:38;;;;;;;;;;;1.10;99.90;;;;;;8346041;28;19916;-66
2021/12/08 07:12:41;;;;;;;;;;;1.20;99.90;;;;;;8357304;28;19913;-65
2021/12/08 07:16:43;;;;;;;;;;;1.30;99.90;;;;;;8357493;28;20396;-65
2021/12/08 07:20:47;;;;;;;;;;;1.30;99.90;;;;;;8352898;28;19923;-65
2021/12/08 07:24:50;;;;;;;;;;;1.40;99.90;;;;;;8354920;28;19917;-65
2021/12/08 07:28:51;;;;;;;;;;;1.60;99.90;;;;;;8357356;28;19909;-63
2021/12/08 07:32:52;;;;;;;;;;;1.40;99.90;;;;;;8346485;28;19923;-63
2021/12/08 07:36:59;;;;;;;;;;;1.50;99.90;;;;;;8344686;28;19914;-62
2021/12/08 07:41:06;;;;;;;;;;;1.80;99.90;;;;;;8353382;28;20423;-62
2021/12/08 07:45:08;;;;;;;;;;;1.80;99.90;;;;;;8355044;28;20007;-63
2021/12/08 07:49:12;;;;;;;;;;;1.80;99.90;;;;;;8334711;28;19955;-64
2021/12/08 07:53:15;;;;;;;;;;;1.80;99.90;;;;;;8337711;28;19917;-63
2021/12/08 07:57:19;;;;;;;;;;;1.90;99.90;;;;;;8332733;28;19917;-63
2021/12/08 08:01:23;;;;;;;;;;;1.90;99.90;;;;;;8332945;28;19923;-63
2021/12/08 08:05:27;;;;;;;;;;;1.70;99.90;;;;;;8358506;28;19909;-63
2021/12/08 08:09:33;;;;;;;;;;;1.90;99.90;;;;;;8348490;28;19917;-63
2021/12/08 08:13:35;;;;;;;;;;;2.10;99.90;;;;;;8354047;28;20016;-63
2021/12/08 08:17:40;;;;;;;;;;;2.20;99.90;;;;;;8339049;28;19974;-63
2021/12/08 08:21:43;;;;;;;;;;;2.20;99.90;;;;;;8342334;28;19953;-63
2021/12/08 08:25:44;;;;;;;;;;;2.30;99.90;;;;;;8359151;28;19952;-63
2021/12/08 08:29:45;;;;;;;;;;;2.30;99.90;;;;;;8360203;28;19913;-64
2021/12/08 08:33:46;;;;;;;;;;;2.30;99.90;;;;;;8347262;28;19924;-63
2021/12/08 08:37:49;;;;;;;;;;;2.40;99.90;;;;;;8347062;28;19986;-63
2021/12/08 08:41:52;;;;;;;;;;;2.50;99.90;;;;;;8346887;28;19920;-63
2021/12/08 08:45:59;;;;;;;;;;;2.50;99.90;;;;;;8349350;28;19978;-63
2021/12/08 08:50:00;;;;;;;;;;;2.60;99.90;;;;;;8351314;28;19916;-63
2021/12/08 08:54:05;;;;;;;;;;;2.70;99.90;;;;;;8431193;22;19929;-63
2021/12/08 08:58:08;;;;;;;;;;;2.60;99.90;;;;;;8396774;28;19916;-63
2021/12/08 09:02:10;;;;;;;;;;;2.70;99.90;;;;;;8395740;28;19929;-63
2021/12/08 09:06:14;;;;;;;;;;;2.70;99.90;;;;;;8373772;28;19947;-64
2021/12/08 09:10:18;;;;;;;;;;;2.80;99.90;;;;;;8365361;28;19920;-63
2021/12/08 09:14:21;;;;;;;;;;;2.70;99.90;;;;;;8377803;28;20292;-61
2021/12/08 09:18:28;;;;;;;;;;;2.70;99.90;;;;;;8376665;28;19916;-63
2021/12/08 09:22:32;;;;;;;;;;;2.80;99.90;;;;;;8373253;28;19916;-63
2021/12/08 09:26:36;;;;;;;;;;;2.70;99.90;;;;;;8374816;28;19917;-62
2021/12/08 09:30:40;;;;;;;;;;;2.80;99.90;;;;;;8369789;28;19920;-64
2021/12/08 09:35:01;;;;;;;;;;;2.70;99.90;;;;;;8377763;28;20410;-63
2021/12/08 09:39:10;;;;;;;;;;;2.80;99.90;;;;;;8376777;28;19913;-62
2021/12/08 09:43:17;;;;;;;;;;;2.80;99.90;;;;;;8374956;28;19975;-64
2021/12/08 09:47:17;;;;;;;;;;;2.70;99.90;;;;;;8370945;28;20303;-63
2021/12/08 09:51:20;;;;;;;;;;;2.40;99.90;;;;;;8364021;28;19917;-62
2021/12/08 09:55:20;;;;;;;;;;;2.50;99.90;;;;;;8361862;28;20482;-64
2021/12/08 09:59:22;;;;;;;;;;;2.50;99.90;;;;;;8392686;28;19923;-62
2021/12/08 10:03:23;;;;;;;;;;;2.50;99.90;;;;;;8367433;28;19913;-63
2021/12/08 10:07:24;;;;;;;;;;;2.20;99.90;;;;;;8393812;28;19942;-62
2021/12/08 10:11:27;;;;;;;;;;;2.30;99.90;;;;;;8393676;28;19966;-64
2021/12/08 10:15:27;;;;;;;;;;;2.20;99.90;;;;;;8364454;28;19917;-63
2021/12/08 10:19:28;;;;;;;;;;;2.00;99.90;;;;;;8362522;28;19974;-63
2021/12/08 10:23:30;;;;;;;;;;;2.10;99.90;;;;;;8365585;28;19944;-64
2021/12/08 10:27:31;;;;;;;;;;;2.00;99.90;;;;;;8357282;28;19940;-63
2021/12/08 10:31:42;;;;;;;;;;;2.00;99.90;;;;;;8360387;28;19924;-64
2021/12/08 10:35:49;;;;;;;;;;;2.00;99.90;;;;;;8359396;28;20003;-64
2021/12/08 10:39:52;;;;;;;;;;;2.30;99.90;;;;;;8356896;28;19916;-63
2021/12/08 10:43:59;;;;;;;;;;;2.50;99.90;;;;;;8358936;28;20023;-64
2021/12/08 10:48:01;;;;;;;;;;;2.60;99.90;;;;;;8372116;28;20456;-64
2021/12/08 10:56:24;;;;;;;;;;;2.80;99.90;;;;;;8374485;28;19975;-64
2021/12/08 11:00:33;;;;;;;;;;;2.70;99.90;;;;;;8356004;28;19917;-63
2021/12/08 11:04:34;;;;;;;;;;;3.00;99.90;;;;;;8373508;28;19944;-63
2021/12/08 11:08:38;;;;;;;;;;;3.10;99.90;;;;;;8375116;28;19909;-63
2021/12/08 11:12:40;;;;;;;;;;;3.40;99.90;;;;;;8354943;28;19936;-64
2021/12/08 11:16:42;;;;;;;;;;;3.40;99.90;;;;;;8372347;28;19916;-63
2021/12/08 11:20:48;;;;;;;;;;;3.30;99.90;;;;;;8365895;28;19917;-63
2021/12/08 11:24:57;;;;;;;;;;;3.20;99.90;;;;;;8353819;28;19913;-61
2021/12/08 11:28:58;;;;;;;;;;;3.20;99.90;;;;;;8369836;28;19995;-63
2021/12/08 11:33:17;;;;;;;;;;;3.20;99.90;;;;;;8356541;28;20002;-63
2021/12/08 11:37:19;;;;;;;;;;;3.10;99.90;;;;;;8364856;28;20361;-63
2021/12/08 11:41:36;;;;;;;;;;;3.00;99.90;;;;;;8372494;28;19956;-63
2021/12/08 11:45:39;;;;;;;;;;;2.90;99.90;;;;;;8366012;28;19917;-62
2021/12/08 11:49:42;;;;;;;;;;;2.90;99.90;;;;;;8381872;28;20354;-63
2021/12/08 11:53:42;;;;;;;;;;;3.10;99.90;;;;;;8361417;28;19921;-62
2021/12/08 11:57:46;;;;;;;;;;;3.30;99.90;;;;;;8321407;28;20317;-63
2021/12/08 12:01:48;;;;;;;;;;;3.20;99.90;;;;;;8313647;28;20008;-64
2021/12/08 12:05:48;;;;;;;;;;;3.50;99.90;;;;;;8331863;28;19949;-63
2021/12/08 12:09:49;;;;;;;;;;;3.60;99.90;;;;;;8358674;28;19913;-63
2021/12/08 12:13:50;;;;;;;;;;;3.60;99.90;;;;;;8364778;28;20387;-63
2021/12/08 12:17:51;;;;;;;;;;;3.60;99.90;;;;;;8359537;28;19912;-63
2021/12/08 12:21:58;;;;;;;;;;;3.60;99.90;;;;;;8379765;28;20141;-62
2021/12/08 12:25:59;;;;;;;;;;;3.50;99.90;;;;;;8379129;28;19909;-63
2021/12/08 12:30:11;;;;;;;;;;;3.70;99.90;;;;;;8380212;28;19995;-63
2021/12/08 12:34:21;;;;;;;;;;;3.80;99.90;;;;;;8379746;28;20415;-63
2021/12/08 12:38:35;;;;;;;;;;;4.00;99.90;;;;;;8378194;28;19916;-63
2021/12/08 12:42:44;;;;;;;;;;;4.10;99.90;;;;;;8391291;28;19919;-63
2021/12/08 12:47:03;;;;;;;;;;;3.90;99.90;;;;;;8354202;28;19913;-62
2021/12/08 12:51:05;;;;;;;;;;;3.60;99.90;;;;;;8344720;28;19917;-62
2021/12/08 12:55:16;;;;;;;;;;;3.40;99.90;;;;;;8377730;28;19940;-62
2021/12/08 12:59:21;;;;;;;;;;;3.50;99.90;;;;;;8372751;28;20009;-62
2021/12/08 13:03:38;;;;;;;;;;;3.30;99.90;;;;;;8371422;28;19921;-62
2021/12/08 13:07:54;;;;;;;;;;;3.50;99.90;;;;;;8376751;28;20300;-63
2021/12/08 13:12:05;;;;;;;;;;;3.70;99.90;;;;;;8376786;28;19916;-62
2021/12/08 13:16:19;;;;;;;;;;;3.70;99.90;;;;;;8375029;28;19908;-63
2021/12/08 13:20:23;;;;;;;;;;;3.60;99.90;;;;;;8370942;28;19987;-60
2021/12/08 13:24:24;;;;;;;;;;;3.60;99.90;;;;;;8377839;28;20001;-63
2021/12/08 13:28:34;;;;;;;;;;;3.60;99.90;;;;;;8359345;28;20103;-62
2021/12/08 13:32:45;;;;;;;;;;;3.20;99.90;;;;;;8377036;28;20292;-62
2021/12/08 13:36:46;;;;;;;;;;;2.80;99.90;;;;;;8355409;28;19915;-63
2021/12/08 13:40:57;;;;;;;;;;;3.00;99.90;;;;;;8358519;28;20342;-62
2021/12/08 13:45:24;;;;;;;;;;;3.00;99.90;;;;;;8377731;28;20058;-63
2021/12/08 13:49:31;;;;;;;;;;;2.70;99.90;;;;;;8350687;28;19908;-63
2021/12/08 13:53:31;;;;;;;;;;;2.90;99.90;;;;;;8369600;28;19920;-63
2021/12/08 13:57:42;;;;;;;;;;;2.70;99.90;;;;;;8365096;28;19985;-61
2021/12/08 14:01:43;;;;;;;;;;;2.50;99.90;;;;;;8361340;28;19920;-62
2021/12/08 14:05:48;;;;;;;;;;;2.40;99.90;;;;;;8370105;28;19950;-63
2021/12/08 14:09:48;;;;;;;;;;;2.40;99.90;;;;;;8373937;28;19917;-63
2021/12/08 14:13:50;;;;;;;;;;;2.40;99.90;;;;;;8369919;28;19952;-61
2021/12/08 14:17:52;;;;;;;;;;;2.40;99.90;;;;;;8348429;28;20284;-63
2021/12/08 14:21:58;;;;;;;;;;;2.10;99.90;;;;;;8369717;28;19956;-63
2021/12/08 14:26:25;;;;;;;;;;;2.10;99.90;;;;;;8366537;28;19916;-62
2021/12/08 14:30:26;;;;;;;;;;;2.00;99.90;;;;;;8360591;28;19959;-63
2021/12/08 14:34:29;;;;;;;;;;;2.00;99.90;;;;;;8372223;28;19913;-61
2021/12/08 14:38:30;;;;;;;;;;;2.00;99.90;;;;;;8352173;28;20633;-62
2021/12/08 14:42:32;;;;;;;;;;;2.10;99.90;;;;;;8372225;28;19923;-61
2021/12/08 14:46:32;;;;;;;;;;;2.00;99.90;;;;;;8351274;28;20474;-61
2021/12/08 14:50:33;;;;;;;;;;;1.90;99.90;;;;;;8361037;28;19913;-62
2021/12/08 14:54:35;;;;;;;;;;;1.80;99.90;;;;;;8363799;28;19916;-61
2021/12/08 14:58:37;;;;;;;;;;;1.80;99.90;;;;;;8356703;28;20397;-61
2021/12/08 15:02:45;;;;;;;;;;;1.80;99.90;;;;;;8368437;28;20320;-63
2021/12/08 15:07:00;;;;;;;;;;;1.80;99.90;;;;;;8371396;28;20034;-62
2021/12/08 15:11:00;;;;;;;;;;;1.90;99.90;;;;;;8358354;28;20116;-63
2021/12/08 15:15:09;;;;;;;;;;;1.80;99.90;;;;;;8340849;28;19912;-61
2021/12/08 15:19:12;;;;;;;;;;;1.70;99.90;;;;;;8374773;28;20324;-63
2021/12/08 15:23:14;;;;;;;;;;;1.70;99.90;;;;;;8369229;28;20034;-63
2021/12/08 15:27:15;;;;;;;;;;;1.60;99.90;;;;;;8345972;28;20282;-63
2021/12/08 15:31:16;;;;;;;;;;;1.70;99.90;;;;;;8360598;28;19948;-62
2021/12/08 15:35:17;;;;;;;;;;;1.70;99.90;;;;;;8368954;28;19927;-62
2021/12/08 15:39:21;;;;;;;;;;;1.80;99.90;;;;;;8396289;22;19933;-61
2021/12/08 15:43:22;;;;;;;;;;;1.60;99.90;;;;;;8384514;28;19916;-61
2021/12/08 15:47:23;;;;;;;;;;;1.70;99.90;;;;;;8369175;28;20496;-61
2021/12/08 15:51:29;;;;;;;;;;;1.90;99.90;;;;;;8348503;28;19920;-61
2021/12/08 15:55:32;;;;;;;;;;;1.80;99.90;;;;;;8351637;28;19941;-63
2021/12/08 15:59:34;;;;;;;;;;;1.70;99.90;;;;;;8326760;28;19967;-64
2021/12/08 16:03:43;;;;;;;;;;;1.90;99.90;;;;;;8330020;28;19913;-63
2021/12/08 16:07:48;;;;;;;;;;;1.80;99.90;;;;;;8333810;28;19920;-64
2021/12/08 16:11:50;;;;;;;;;;;1.60;99.90;;;;;;8335653;28;19936;-63
2021/12/08 16:15:51;;;;;;;;;;;1.60;99.90;;;;;;8314054;28;19983;-64
2021/12/08 16:19:53;;;;;;;;;;;1.70;99.90;;;;;;8340310;28;19924;-64
2021/12/08 16:23:54;;;;;;;;;;;1.60;99.90;;;;;;8348785;28;19964;-64
2021/12/08 16:27:57;;;;;;;;;;;1.70;99.90;;;;;;8332275;28;19913;-64
2021/12/08 16:31:58;;;;;;;;;;;1.60;99.90;;;;;;8338475;28;19917;-64
2021/12/08 16:35:59;;;;;;;;;;;1.60;99.90;;;;;;8341621;28;20039;-64
2021/12/08 16:40:23;;;;;;;;;;;1.80;99.90;;;;;;8337980;28;19983;-64
2021/12/08 16:44:20;;;;;;;;;;;1.70;99.90;;;;;;8351797;28;19947;-65
2021/12/08 16:48:23;;;;;;;;;;;1.70;99.90;;;;;;8331159;28;19921;-65
2021/12/08 16:52:25;;;;;;;;;;;1.60;99.90;;;;;;8337031;28;19917;-64
2021/12/08 16:56:26;;;;;;;;;;;1.70;99.90;;;;;;8349968;28;19924;-64
2021/12/08 17:00:29;;;;;;;;;;;1.60;99.90;;;;;;8346180;28;19924;-64
2021/12/08 17:04:30;;;;;;;;;;;1.90;99.90;;;;;;8347657;28;20299;-65
2021/12/08 17:08:31;;;;;;;;;;;2.00;99.90;;;;;;8343506;28;19912;-64
2021/12/08 17:12:32;;;;;;;;;;;2.00;99.90;;;;;;8349711;28;19982;-64
2021/12/08 17:16:33;;;;;;;;;;;1.90;99.90;;;;;;8346501;28;19962;-64
2021/12/08 17:20:38;;;;;;;;;;;1.70;99.90;;;;;;8337230;28;19943;-64
2021/12/08 17:24:39;;;;;;;;;;;1.60;99.90;;;;;;8344423;28;19923;-64
2021/12/08 17:28:40;;;;;;;;;;;1.60;99.90;;;;;;8343422;28;20281;-63
2021/12/08 17:32:40;;;;;;;;;;;1.50;99.90;;;;;;8359256;28;19913;-63
2021/12/08 17:36:42;;;;;;;;;;;1.60;99.90;;;;;;8357806;28;19921;-64
2021/12/08 17:40:43;;;;;;;;;;;1.60;99.90;;;;;;8361074;28;19912;-63
2021/12/08 17:44:43;;;;;;;;;;;1.60;99.90;;;;;;8358287;28;20011;-63
2021/12/08 17:48:44;;;;;;;;;;;1.70;99.90;;;;;;8361169;28;19927;-64
2021/12/08 17:52:44;;;;;;;;;;;1.60;99.90;;;;;;8353638;28;19909;-64
2021/12/08 17:56:46;;;;;;;;;;;1.70;99.90;;;;;;8360952;28;19912;-64
2021/12/08 18:00:49;;;;;;;;;;;1.80;99.90;;;;;;8339088;28;19917;-63
2021/12/08 18:04:50;;;;;;;;;;;1.70;99.90;;;;;;8348591;28;19917;-63
2021/12/08 18:08:51;;;;;;;;;;;1.70;99.90;;;;;;8342802;28;19967;-63
2021/12/08 18:12:52;;;;;;;;;;;1.60;99.90;;;;;;8351672;28;20055;-64
2021/12/08 18:16:52;;;;;;;;;;;1.50;99.90;;;;;;8359678;28;19923;-63
2021/12/08 18:20:53;;;;;;;;;;;1.70;99.90;;;;;;8362288;28;19928;-64
2021/12/08 18:24:53;;;;;;;;;;;1.90;99.90;;;;;;8344190;28;19940;-64
2021/12/08 18:28:54;;;;;;;;;;;1.80;99.90;;;;;;8357704;28;19916;-64
2021/12/08 18:32:54;;;;;;;;;;;1.70;99.90;;;;;;8356430;28;19913;-64
2021/12/08 18:36:55;;;;;;;;;;;1.80;99.90;;;;;;8342489;28;20867;-63
2021/12/08 18:40:56;;;;;;;;;;;2.00;99.90;;;;;;8331432;28;19944;-64
2021/12/08 18:44:58;;;;;;;;;;;1.90;99.90;;;;;;8333483;28;19925;-64
2021/12/08 18:48:58;;;;;;;;;;;1.80;99.90;;;;;;8324621;28;19917;-64
2021/12/08 18:52:59;;;;;;;;;;;1.80;99.90;;;;;;8344199;28;19920;-64
2021/12/08 18:56:59;;;;;;;;;;;1.80;99.90;;;;;;8347030;28;19920;-65
2021/12/08 19:01:01;;;;;;;;;;;1.80;99.90;;;;;;8338861;28;19921;-65
2021/12/08 19:05:03;;;;;;;;;;;1.70;99.90;;;;;;8334239;28;19917;-63
2021/12/08 19:09:07;;;;;;;;;;;1.60;99.90;;;;;;8333923;28;19923;-64
2021/12/08 19:13:08;;;;;;;;;;;1.60;99.90;;;;;;8341723;28;19931;-63
2021/12/08 19:17:09;;;;;;;;;;;1.80;99.90;;;;;;8340613;28;19917;-64
2021/12/08 19:21:13;;;;;;;;;;;1.80;99.90;;;;;;8347409;28;19920;-65
2021/12/08 19:25:15;;;;;;;;;;;1.80;99.90;;;;;;8334560;28;19913;-63
2021/12/08 19:29:16;;;;;;;;;;;1.70;99.90;;;;;;8357302;28;19920;-62
2021/12/08 19:33:18;;;;;;;;;;;1.70;99.90;;;;;;8360471;28;20132;-62
2021/12/08 19:37:19;;;;;;;;;;;1.90;99.90;;;;;;8372966;28;19920;-64
2021/12/08 19:41:22;;;;;;;;;;;2.10;99.90;;;;;;8364994;28;19917;-63
2021/12/08 19:45:24;;;;;;;;;;;1.90;99.90;;;;;;8349960;28;19948;-63
2021/12/08 19:49:24;;;;;;;;;;;1.90;99.90;;;;;;8326758;28;19975;-63
2021/12/08 19:53:25;;;;;;;;;;;1.70;99.90;;;;;;8338803;28;19921;-63
2021/12/08 19:57:26;;;;;;;;;;;1.70;99.90;;;;;;8333690;28;19979;-63
2021/12/08 20:01:27;;;;;;;;;;;1.80;99.90;;;;;;8344164;28;20281;-63
2021/12/08 20:05:28;;;;;;;;;;;1.80;99.90;;;;;;8333059;28;19916;-63
2021/12/08 20:09:28;;;;;;;;;;;1.70;99.90;;;;;;8336376;28;19917;-63
2021/12/08 20:13:29;;;;;;;;;;;1.90;99.90;;;;;;8326909;28;20317;-63
2021/12/08 20:17:29;;;;;;;;;;;1.90;99.90;;;;;;8352391;28;20331;-63
2021/12/08 20:21:30;;;;;;;;;;;1.90;99.90;;;;;;8330632;28;19932;-63
2021/12/08 20:25:31;;;;;;;;;;;1.90;99.90;;;;;;8336553;28;19991;-63
2021/12/08 20:29:32;;;;;;;;;;;1.90;99.90;;;;;;8336830;28;19917;-62
2021/12/08 20:33:37;;;;;;;;;;;1.80;99.90;;;;;;8322475;28;19920;-63
2021/12/08 20:37:38;;;;;;;;;;;1.80;99.90;;;;;;8351775;28;19992;-62
2021/12/08 20:41:38;;;;;;;;;;;1.70;99.90;;;;;;8344017;28;19927;-63
2021/12/08 20:45:40;;;;;;;;;;;1.60;99.90;;;;;;8362839;28;20398;-62
2021/12/08 20:49:41;;;;;;;;;;;1.70;99.90;;;;;;8370888;28;19920;-61
2021/12/08 20:53:42;;;;;;;;;;;1.60;99.90;;;;;;8349779;28;19908;-62
2021/12/08 20:57:44;;;;;;;;;;;1.50;99.90;;;;;;8366644;28;19927;-62
2021/12/08 21:01:54;;;;;;;;;;;1.70;99.90;;;;;;8369028;28;20727;-63
2021/12/08 21:05:55;;;;;;;;;;;1.80;99.90;;;;;;8371129;28;19913;-62
2021/12/08 21:09:57;;;;;;;;;;;1.70;99.90;;;;;;8376837;28;19912;-62
2021/12/08 21:13:57;;;;;;;;;;;1.70;99.90;;;;;;8378452;28;19912;-63
2021/12/08 21:17:59;;;;;;;;;;;1.70;99.90;;;;;;8367172;28;20349;-63
2021/12/08 21:21:59;;;;;;;;;;;1.70;99.90;;;;;;8353481;28;19967;-62
2021/12/08 21:26:00;;;;;;;;;;;1.80;99.90;;;;;;8360960;28;19960;-63
2021/12/08 21:30:03;;;;;;;;;;;1.90;99.90;;;;;;8339598;28;19909;-62
2021/12/08 21:34:08;;;;;;;;;;;1.80;99.90;;;;;;8354801;28;19909;-62
2021/12/08 21:38:10;;;;;;;;;;;1.70;99.90;;;;;;8361886;28;19916;-62
2021/12/08 21:42:12;;;;;;;;;;;1.60;99.90;;;;;;8331571;28;20381;-62
2021/12/08 21:46:13;;;;;;;;;;;1.60;99.90;;;;;;8329546;28;20451;-62
2021/12/08 21:50:14;;;;;;;;;;;1.60;99.90;;;;;;8330607;28;19959;-63
2021/12/08 21:54:15;;;;;;;;;;;1.50;99.90;;;;;;8362349;28;19915;-63
2021/12/08 21:58:17;;;;;;;;;;;1.70;99.90;;;;;;8362138;28;19913;-62
2021/12/08 22:02:17;;;;;;;;;;;1.60;99.90;;;;;;8360489;28;19917;-63
2021/12/08 22:06:18;;;;;;;;;;;1.70;99.90;;;;;;8360172;28;20427;-62
2021/12/08 22:10:20;;;;;;;;;;;1.80;99.90;;;;;;8343262;28;19916;-62
2021/12/08 22:14:20;;;;;;;;;;;1.80;99.90;;;;;;8329335;28;19913;-63
2021/12/08 22:18:22;;;;;;;;;;;1.80;99.90;;;;;;8328498;28;19988;-63
2021/12/08 22:22:22;;;;;;;;;;;1.70;99.90;;;;;;8345892;28;19974;-63
2021/12/08 22:26:23;;;;;;;;;;;1.60;99.90;;;;;;8360204;28;19913;-63
2021/12/08 22:30:23;;;;;;;;;;;1.60;99.90;;;;;;8360671;28;19909;-62
2021/12/08 22:34:24;;;;;;;;;;;1.70;99.90;;;;;;8360687;28;20053;-63
2021/12/08 22:38:25;;;;;;;;;;;1.80;99.90;;;;;;8328418;28;20389;-62
2021/12/08 22:42:26;;;;;;;;;;;1.80;99.90;;;;;;8327248;28;19925;-63
2021/12/08 22:46:26;;;;;;;;;;;1.80;99.90;;;;;;8327304;28;19953;-62
2021/12/08 22:50:30;;;;;;;;;;;1.90;99.90;;;;;;8348042;28;19913;-63
2021/12/08 22:54:31;;;;;;;;;;;1.80;99.90;;;;;;8341941;28;20035;-62
2021/12/08 22:58:31;;;;;;;;;;;1.80;99.90;;;;;;8359918;28;19908;-63
2021/12/08 23:02:32;;;;;;;;;;;1.70;99.90;;;;;;8358879;28;20281;-62
2021/12/08 23:06:32;;;;;;;;;;;1.70;99.90;;;;;;8359777;28;19909;-62
2021/12/08 23:10:35;;;;;;;;;;;1.70;99.90;;;;;;8359360;28;19909;-63
2021/12/08 23:14:36;;;;;;;;;;;1.80;99.90;;;;;;8329088;28;19917;-62
2021/12/08 23:18:37;;;;;;;;;;;1.70;99.90;;;;;;8311632;28;19908;-63
2021/12/08 23:22:39;;;;;;;;;;;1.70;99.90;;;;;;8349378;28;19919;-62
2021/12/08 23:26:40;;;;;;;;;;;1.70;99.90;;;;;;8328839;28;19920;-62
2021/12/08 23:30:42;;;;;;;;;;;1.70;99.90;;;;;;8326451;28;19992;-62
2021/12/08 23:34:51;;;;;;;;;;;1.60;99.90;;;;;;8309178;28;19909;-62
2021/12/08 23:43:01;;;;;;;;;;;1.70;99.90;;;;;;8359230;28;20316;-62
2021/12/08 23:47:01;;;;;;;;;;;1.70;99.90;;;;;;8359419;28;19931;-62
2021/12/08 23:51:02;;;;;;;;;;;1.70;99.90;;;;;;8340152;28;20022;-63
2021/12/08 23:55:07;;;;;;;;;;;1.60;99.90;;;;;;8365573;28;19909;-63
2021/12/08 23:59:14;;;;;;;;;;;1.50;99.90;;;;;;8348017;28;19979;-63
